Time;durP1;ratioP1;P1;durP2;ratioP2;P2;SDS_P1;SDS_P2;PMS_P1;PMS_P2;Temp;Humidity;BMP_temperature;BMP_pressure;BME280_temperature;BME280_humidity;BME280_pressure;Samples;Min_cycle;Max_cycle;Signal;HPM_P1;HPM_P2
2022/10/03 00:01:49;;;;;;;;;51.75;41.50;;;;;15.68;63.85;102057.34;5070013;27;45468;-45
2022/10/03 00:04:42;;;;;;;;;51.25;40.50;;;;;15.67;63.97;102051.22;5087087;27;45290;-46
2022/10/03 00:07:31;;;;;;;;;52.50;41.00;;;;;15.66;64.14;102056.53;5086053;27;46093;-43
2022/10/03 00:10:11;;;;;;;;;48.25;37.25;;;;;15.66;64.10;102054.75;5064911;27;45899;-45
2022/10/03 00:13:02;;;;;;;;;47.00;39.25;;;;;15.66;64.00;102057.38;5081957;27;46116;-43
2022/10/03 00:16:07;;;;;;;;;51.00;39.50;;;;;15.66;64.03;102061.81;5091019;27;45454;-44
2022/10/03 00:18:43;;;;;;;;;43.75;35.25;;;;;15.65;63.69;102066.22;5088628;27;46223;-43
2022/10/03 00:21:31;;;;;;;;;50.25;40.25;;;;;15.66;64.17;102061.81;5077990;27;45361;-43
2022/10/03 00:24:19;;;;;;;;;46.75;34.75;;;;;15.66;63.94;102067.94;5094382;27;45795;-45
2022/10/03 00:26:52;;;;;;;;;47.00;36.75;;;;;15.66;64.00;102069.72;5080781;27;45276;-44
2022/10/03 00:29:45;;;;;;;;;43.50;35.75;;;;;15.61;63.95;102061.06;5085797;27;45394;-44
2022/10/03 00:32:19;;;;;;;;;41.00;34.00;;;;;15.63;64.20;102061.88;5086297;27;45461;-43
2022/10/03 00:34:48;;;;;;;;;37.25;33.00;;;;;15.63;63.88;102059.25;5090817;27;45246;-43
2022/10/03 00:37:28;;;;;;;;;40.75;33.50;;;;;15.63;64.06;102060.09;5072412;27;45538;-44
2022/10/03 00:40:12;;;;;;;;;38.50;32.50;;;;;15.63;63.63;102065.38;5069868;27;45422;-44
2022/10/03 00:42:56;;;;;;;;;47.25;33.75;;;;;15.61;64.19;102069.84;5065463;27;45326;-47
2022/10/03 00:45:28;;;;;;;;;37.00;31.00;;;;;15.61;64.01;102076.91;5085049;27;45229;-47
2022/10/03 00:48:02;;;;;;;;;41.00;32.50;;;;;15.59;64.09;102079.56;5094698;27;45293;-49
2022/10/03 00:50:51;;;;;;;;;45.00;33.25;;;;;15.59;63.85;102071.66;5076025;27;47668;-44
2022/10/03 00:53:36;;;;;;;;;40.00;33.75;;;;;15.60;63.92;102077.78;5082608;27;45411;-43
2022/10/03 00:56:30;;;;;;;;;35.25;29.00;;;;;15.59;63.86;102076.06;5090350;27;45254;-44
2022/10/03 00:59:17;;;;;;;;;31.75;26.25;;;;;15.58;63.84;102075.19;5090786;27;45470;-44
2022/10/03 01:01:47;;;;;;;;;32.75;28.25;;;;;15.56;63.83;102062.06;5076793;27;46526;-44
2022/10/03 01:04:40;;;;;;;;;34.50;29.25;;;;;15.56;63.82;102071.72;5091631;27;45631;-45
2022/10/03 01:07:27;;;;;;;;;30.50;27.50;;;;;15.55;63.91;102070.88;5069567;27;45510;-44
2022/10/03 01:10:01;;;;;;;;;30.00;23.75;;;;;15.56;63.92;102072.63;5084600;27;45529;-49
2022/10/03 01:12:42;;;;;;;;;31.25;26.50;;;;;15.54;63.86;102074.41;5077515;27;46969;-43
2022/10/03 01:15:14;;;;;;;;;25.50;25.00;;;;;15.53;63.80;102075.31;5083700;27;45730;-43
2022/10/03 01:17:54;;;;;;;;;31.00;21.75;;;;;15.52;63.96;102068.31;5084255;27;45542;-45
2022/10/03 01:20:28;;;;;;;;;26.75;19.75;;;;;15.53;64.15;102077.09;5091558;27;45582;-44
2022/10/03 01:23:36;;;;;;;;;21.75;19.75;;;;;15.53;63.99;102075.31;5074629;27;46455;-44
2022/10/03 01:26:06;;;;;;;;;30.00;25.25;;;;;15.53;64.03;102077.97;5063509;27;45507;-47
2022/10/03 01:31:37;;;;;;;;;34.00;25.25;;;;;15.52;63.97;102067.44;5085339;27;45258;-46
2022/10/03 01:34:09;;;;;;;;;34.33;29.33;;;;;15.51;64.19;102076.25;5084429;27;45457;-47
2022/10/03 01:36:51;;;;;;;;;39.00;31.50;;;;;15.48;64.32;102076.34;5067406;27;45768;-48
2022/10/03 01:40:02;;;;;;;;;40.00;30.75;;;;;15.46;64.56;102076.38;5084636;27;45785;-47
2022/10/03 01:42:39;;;;;;;;;33.75;24.00;;;;;15.45;64.25;102068.50;5078900;27;45633;-44
2022/10/03 01:45:21;;;;;;;;;32.00;30.00;;;;;15.44;64.06;102066.75;5069003;27;45423;-44
2022/10/03 01:47:56;;;;;;;;;27.00;23.25;;;;;15.42;64.63;102069.44;5073044;27;45843;-45
2022/10/03 01:51:12;;;;;;;;;27.00;25.50;;;;;15.36;64.36;102073.09;5084571;27;45404;-48
2022/10/03 01:54:15;;;;;;;;;28.50;24.00;;;;;15.35;64.45;102066.13;4997495;28;45367;-46
2022/10/03 01:56:49;;;;;;;;;28.50;21.75;;;;;15.36;64.29;102062.56;5095617;27;46327;-44
2022/10/03 01:59:23;;;;;;;;;26.00;23.00;;;;;15.35;64.17;102067.88;5088622;27;45879;-43
2022/10/03 02:02:09;;;;;;;;;17.50;17.50;;;;;15.32;64.30;102060.06;5074528;27;45435;-43
2022/10/03 02:04:47;;;;;;;;;22.50;18.75;;;;;15.30;64.14;102061.88;5090617;27;45465;-42
2022/10/03 02:07:40;;;;;;;;;25.50;20.00;;;;;15.29;64.67;102054.84;5078684;27;46262;-44
2022/10/03 02:10:27;;;;;;;;;21.75;17.50;;;;;15.26;64.45;102068.97;5081353;27;45230;-44
2022/10/03 02:13:04;;;;;;;;;23.25;20.50;;;;;15.26;64.28;102062.84;5068997;27;45485;-42
2022/10/03 02:15:54;;;;;;;;;26.50;23.25;;;;;15.24;64.44;102054.97;5092050;27;45343;-43
2022/10/03 02:19:20;;;;;;;;;30.25;28.25;;;;;15.24;64.18;102062.00;5067046;27;45284;-45
2022/10/03 02:21:48;;;;;;;;;35.00;30.25;;;;;15.21;64.27;102055.06;4986938;28;45619;-48
2022/10/03 02:24:13;;;;;;;;;36.75;28.25;;;;;15.22;64.23;102046.22;4997052;28;45549;-45
2022/10/03 02:27:06;;;;;;;;;34.00;30.00;;;;;15.22;64.66;102053.28;5054499;27;45471;-43
2022/10/03 02:29:43;;;;;;;;;38.00;32.50;;;;;15.23;64.43;102060.25;5086647;27;45676;-43
2022/10/03 02:32:22;;;;;;;;;36.50;29.75;;;;;15.22;64.54;102051.50;5082945;27;46219;-46
2022/10/03 02:35:08;;;;;;;;;37.00;33.75;;;;;15.21;64.62;102054.16;5090640;27;45472;-44
2022/10/03 02:38:05;;;;;;;;;36.50;31.00;;;;;15.18;64.72;102058.63;5091771;27;45586;-43
2022/10/03 02:40:48;;;;;;;;;35.75;29.50;;;;;15.16;64.58;102056.94;5095354;27;46367;-46
2022/10/03 02:43:26;;;;;;;;;36.00;30.00;;;;;15.14;64.35;102049.06;5079254;28;45402;-47
2022/10/03 02:46:06;;;;;;;;;30.25;27.50;;;;;15.12;64.68;102048.25;5085075;27;45497;-44
2022/10/03 02:48:46;;;;;;;;;44.50;33.75;;;;;15.11;64.62;102061.47;5073595;27;45422;-44
2022/10/03 02:51:35;;;;;;;;;29.75;28.00;;;;;15.11;64.68;102058.81;5080531;27;45429;-43
2022/10/03 02:54:33;;;;;;;;;39.00;31.25;;;;;15.10;64.37;102055.31;5088442;27;45864;-45
2022/10/03 02:57:37;;;;;;;;;33.50;29.50;;;;;15.11;64.62;102058.81;5075313;27;45660;-45
2022/10/03 03:00:19;;;;;;;;;36.25;30.00;;;;;15.11;64.83;102062.31;5083530;27;45474;-48
2022/10/03 03:03:19;;;;;;;;;31.75;26.75;;;;;15.14;64.61;102062.25;5077214;27;46391;-44
2022/10/03 03:06:09;;;;;;;;;31.75;24.25;;;;;15.16;64.82;102056.94;5090004;27;45447;-43
2022/10/03 03:09:12;;;;;;;;;27.50;20.75;;;;;15.19;64.93;102054.19;5081773;27;45383;-44
2022/10/03 03:12:18;;;;;;;;;22.25;16.25;;;;;15.20;64.81;102058.59;5094931;27;45985;-48
2022/10/03 03:14:56;;;;;;;;;29.00;21.25;;;;;15.21;64.69;102056.81;5018775;27;46189;-47
2022/10/03 03:17:41;;;;;;;;;30.00;23.00;;;;;15.21;64.42;102057.69;5092555;27;45899;-45
2022/10/03 03:20:37;;;;;;;;;30.75;24.25;;;;;15.22;64.95;102059.41;5081135;27;45388;-45
2022/10/03 03:23:09;;;;;;;;;23.00;19.25;;;;;15.22;64.76;102048.84;5080262;27;45510;-46
2022/10/03 03:25:49;;;;;;;;;22.50;20.50;;;;;15.20;64.64;102050.69;5080293;27;46461;-46
2022/10/03 03:28:59;;;;;;;;;23.75;18.75;;;;;15.23;64.43;102052.34;5082786;27;45628;-45
2022/10/03 03:31:34;;;;;;;;;21.00;20.75;;;;;15.23;64.49;102052.34;5015684;28;45609;-45
2022/10/03 03:34:22;;;;;;;;;21.50;17.00;;;;;15.26;64.56;102057.56;5086668;27;45398;-46
2022/10/03 03:36:59;;;;;;;;;22.00;17.25;;;;;15.27;64.27;102054.03;5094997;27;46137;-45
2022/10/03 03:39:35;;;;;;;;;18.50;16.75;;;;;15.27;64.56;102059.31;5081058;27;45329;-45
2022/10/03 03:42:22;;;;;;;;;20.50;17.75;;;;;15.28;64.52;102056.63;5078230;27;46136;-46
2022/10/03 03:45:13;;;;;;;;;23.00;15.50;;;;;15.30;64.65;102053.97;5097707;27;45176;-43
2022/10/03 03:48:09;;;;;;;;;21.25;18.25;;;;;15.31;64.53;102060.94;5064662;27;45304;-45
2022/10/03 03:50:36;;;;;;;;;20.50;15.75;;;;;15.30;64.41;102062.72;5092561;27;45402;-43
2022/10/03 03:53:27;;;;;;;;;17.25;15.25;;;;;15.28;64.27;102058.38;5079412;27;45286;-44
2022/10/03 03:56:16;;;;;;;;;17.00;13.75;;;;;15.24;64.95;102065.50;5088818;27;45344;-44
2022/10/03 03:58:58;;;;;;;;;15.50;12.00;;;;;15.17;64.59;102063.94;5072207;28;46814;-43
2022/10/03 04:01:56;;;;;;;;;19.00;12.75;;;;;15.12;64.99;102066.69;5083114;27;46008;-46
2022/10/03 04:04:51;;;;;;;;;21.00;15.00;;;;;15.04;65.26;102058.09;5066087;27;45237;-45
2022/10/03 04:07:40;;;;;;;;;13.75;9.50;;;;;15.02;65.18;102064.31;5093104;27;45249;-45
2022/10/03 04:10:41;;;;;;;;;19.25;14.25;;;;;14.97;65.68;102054.75;5068077;28;45406;-47
2022/10/03 04:13:30;;;;;;;;;12.75;11.75;;;;;14.93;65.51;102058.34;5088180;27;45435;-43
2022/10/03 04:16:10;;;;;;;;;16.25;13.25;;;;;14.89;65.68;102058.47;5075165;27;45435;-42
2022/10/03 04:18:57;;;;;;;;;9.00;6.75;;;;;14.89;65.91;102053.19;5081100;27;45582;-43
2022/10/03 04:21:31;;;;;;;;;19.75;14.00;;;;;14.88;65.55;102049.69;5076756;27;45439;-45
2022/10/03 04:24:20;;;;;;;;;16.50;13.75;;;;;14.87;65.47;102057.63;5102609;27;45283;-42
2022/10/03 04:26:51;;;;;;;;;20.00;16.25;;;;;14.86;65.87;102063.81;5042904;27;45345;-45
2022/10/03 04:29:21;;;;;;;;;26.25;17.25;;;;;14.84;65.73;102061.22;5087567;27;45283;-45
2022/10/03 04:32:08;;;;;;;;;21.50;18.50;;;;;14.85;65.87;102064.72;5078438;27;45475;-44
2022/10/03 04:34:57;;;;;;;;;24.00;17.00;;;;;14.84;65.51;102061.22;5092543;27;45453;-44
2022/10/03 04:37:23;;;;;;;;;21.75;18.25;;;;;14.85;65.95;102062.94;5087328;27;45315;-45
2022/10/03 04:39:54;;;;;;;;;19.00;14.00;;;;;14.84;65.69;102055.94;5088783;27;45661;-43
2022/10/03 04:43:08;;;;;;;;;24.00;19.25;;;;;14.85;65.97;102054.19;5096478;27;45466;-42
2022/10/03 04:45:58;;;;;;;;;21.50;19.00;;;;;14.86;65.95;102048.88;5088123;27;45260;-43
2022/10/03 04:49:00;;;;;;;;;23.25;18.00;;;;;14.90;66.21;102061.06;5094918;27;45338;-44
2022/10/03 04:51:44;;;;;;;;;19.25;16.00;;;;;14.89;65.73;102059.34;5072766;27;45470;-43
2022/10/03 04:54:32;;;;;;;;;20.50;14.50;;;;;14.90;65.90;102065.47;5078137;27;45965;-44
2022/10/03 04:57:15;;;;;;;;;16.75;14.50;;;;;14.91;65.88;102070.72;5096907;27;46127;-44
2022/10/03 05:00:02;;;;;;;;;16.75;13.50;;;;;14.92;65.78;102068.94;5091774;27;45461;-45
2022/10/03 05:02:48;;;;;;;;;20.25;13.75;;;;;14.91;65.59;102070.72;5086138;27;46416;-46
2022/10/03 05:05:13;;;;;;;;;17.25;12.75;;;;;14.92;65.57;102066.31;5041140;27;45473;-45
2022/10/03 05:07:50;;;;;;;;;15.75;14.00;;;;;14.91;65.43;102068.09;5083695;27;45336;-43
2022/10/03 05:10:52;;;;;;;;;16.00;14.50;;;;;14.92;65.90;102064.53;5102050;27;45431;-44
2022/10/03 05:13:28;;;;;;;;;15.25;13.25;;;;;14.93;65.39;102075.97;5084477;27;47026;-44
2022/10/03 05:16:05;;;;;;;;;14.50;12.50;;;;;14.93;65.50;102066.28;5084909;27;45507;-45
2022/10/03 05:18:40;;;;;;;;;17.50;13.25;;;;;14.95;65.64;102067.09;5071387;27;45996;-45
2022/10/03 05:21:13;;;;;;;;;15.50;13.25;;;;;14.96;65.59;102067.94;5074078;27;45549;-44
2022/10/03 05:23:50;;;;;;;;;18.25;14.75;;;;;14.95;65.72;102072.38;5085118;27;45444;-43
2022/10/03 05:26:27;;;;;;;;;13.75;13.00;;;;;14.96;65.68;102070.59;5087259;27;45343;-44
2022/10/03 05:29:11;;;;;;;;;18.25;14.00;;;;;14.96;65.85;102071.47;5088287;27;45823;-44
2022/10/03 05:31:39;;;;;;;;;15.25;11.75;;;;;14.98;65.83;102074.09;5083192;27;45307;-43
2022/10/03 05:34:13;;;;;;;;;16.75;14.50;;;;;15.00;65.82;102074.91;5091557;27;45722;-44
2022/10/03 05:37:14;;;;;;;;;14.75;12.25;;;;;14.99;65.54;102073.16;5073315;27;46155;-44
2022/10/03 05:40:03;;;;;;;;;16.75;13.50;;;;;15.00;65.62;102078.41;5082387;27;45452;-44
2022/10/03 05:42:51;;;;;;;;;13.75;11.50;;;;;15.04;65.63;102088.88;5065683;27;45391;-43
2022/10/03 05:45:38;;;;;;;;;16.25;13.00;;;;;15.04;65.32;102081.81;5074653;28;45441;-44
2022/10/03 05:48:28;;;;;;;;;8.25;8.00;;;;;14.97;65.31;102089.00;5096569;27;46119;-48
2022/10/03 05:51:35;;;;;;;;;14.50;10.00;;;;;14.86;65.24;102091.03;5100804;27;45711;-45
2022/10/03 05:54:13;;;;;;;;;15.00;11.00;;;;;14.75;65.25;102082.50;5076267;27;45490;-44
2022/10/03 05:57:00;;;;;;;;;10.25;8.25;;;;;14.73;65.41;102076.41;5095273;27;45694;-47
2022/10/03 05:59:34;;;;;;;;;16.25;11.00;;;;;14.70;65.43;102081.75;5084606;27;46217;-46
2022/10/03 06:02:23;;;;;;;;;14.00;10.00;;;;;14.71;65.44;102078.22;5085439;27;45561;-45
2022/10/03 06:05:11;;;;;;;;;11.50;10.50;;;;;14.73;65.70;102077.28;5090768;27;45831;-44
2022/10/03 06:08:05;;;;;;;;;14.00;10.00;;;;;14.76;65.45;102064.00;5079468;27;45466;-47
2022/10/03 06:10:32;;;;;;;;;16.50;11.50;;;;;14.76;65.34;102064.00;5068132;27;45528;-44
2022/10/03 06:13:25;;;;;;;;;13.25;11.50;;;;;14.77;65.08;102060.50;5091627;27;45455;-48
2022/10/03 06:16:01;;;;;;;;;10.50;9.50;;;;;14.79;64.79;102056.03;5084534;27;45461;-46
2022/10/03 06:19:05;;;;;;;;;12.75;9.50;;;;;14.79;64.73;102071.00;5079654;27;45684;-44
2022/10/03 06:22:10;;;;;;;;;11.50;10.00;;;;;14.78;64.48;102075.41;5078037;27;48225;-45
2022/10/03 06:25:13;;;;;;;;;12.75;12.00;;;;;14.76;64.97;102074.56;5091531;27;45561;-45
2022/10/03 06:27:57;;;;;;;;;13.75;10.00;;;;;14.78;64.76;102082.44;5088789;27;45470;-46
2022/10/03 06:30:42;;;;;;;;;17.50;11.00;;;;;14.79;65.00;102082.41;5083960;27;45300;-46
2022/10/03 06:33:20;;;;;;;;;11.25;10.50;;;;;14.81;64.61;102075.31;5080347;27;48302;-46
2022/10/03 06:35:45;;;;;;;;;14.50;12.25;;;;;14.84;64.98;102082.31;5085358;27;45421;-48
2022/10/03 06:38:28;;;;;;;;;16.00;13.00;;;;;14.83;64.34;102077.94;5098390;27;45319;-45
2022/10/03 06:41:35;;;;;;;;;12.00;11.00;;;;;14.76;64.50;102074.56;5085956;27;45542;-46
2022/10/03 06:44:28;;;;;;;;;10.00;10.00;;;;;14.68;64.18;102087.06;5070942;27;47002;-44
2022/10/03 06:47:35;;;;;;;;;12.25;9.25;;;;;14.65;64.10;102092.38;5094713;27;45255;-44
2022/10/03 06:50:24;;;;;;;;;9.00;8.25;;;;;14.63;64.30;102088.94;5057536;28;45357;-47
2022/10/03 06:53:13;;;;;;;;;15.50;8.25;;;;;14.61;64.14;102088.09;5090240;27;45504;-47
2022/10/03 06:56:28;;;;;;;;;10.00;9.00;;;;;14.55;64.21;102104.84;5085814;27;46170;-44
2022/10/03 06:59:10;;;;;;;;;11.00;9.75;;;;;14.38;63.78;102094.69;5083303;27;45521;-44
2022/10/03 07:01:54;;;;;;;;;14.50;10.75;;;;;14.31;64.41;102103.63;5078461;27;45753;-45
2022/10/03 07:05:13;;;;;;;;;8.50;8.00;;;;;14.31;64.54;102114.16;5062607;27;48766;-45
2022/10/03 07:08:15;;;;;;;;;12.50;9.25;;;;;14.35;64.11;102115.81;5016143;28;45321;-46
2022/10/03 07:11:02;;;;;;;;;10.00;8.00;;;;;14.39;64.01;102124.53;5086475;27;45407;-47
2022/10/03 07:13:30;;;;;;;;;7.00;6.00;;;;;14.33;63.84;102122.88;5089634;27;45325;-44
2022/10/03 07:16:23;;;;;;;;;9.00;5.50;;;;;14.26;64.47;102118.66;5097229;27;45306;-45
2022/10/03 07:18:51;;;;;;;;;10.00;8.00;;;;;14.20;64.10;102113.50;5079511;27;46846;-46
2022/10/03 07:21:45;;;;;;;;;9.25;7.50;;;;;14.15;64.44;102124.13;5080709;27;45439;-44
2022/10/03 07:24:48;;;;;;;;;11.00;7.75;;;;;14.12;64.25;102120.69;5069578;28;45477;-47
2022/10/03 07:27:32;;;;;;;;;14.50;9.50;;;;;14.12;64.73;102115.41;5087957;27;45356;-47
2022/10/03 07:30:18;;;;;;;;;11.75;8.75;;;;;14.13;64.75;102115.41;5092558;27;45730;-46
2022/10/03 07:33:05;;;;;;;;;11.00;10.00;;;;;14.19;64.78;102122.31;5078104;27;45472;-47
2022/10/03 07:38:56;;;;;;;;;13.50;10.75;;;;;14.21;64.51;102126.63;5091361;27;45221;-47
2022/10/03 07:41:51;;;;;;;;;8.25;7.50;;;;;14.26;64.59;102125.69;5079505;27;45924;-45
2022/10/03 07:44:58;;;;;;;;;11.50;10.50;;;;;14.32;64.79;102125.53;5096480;27;45841;-46
2022/10/03 07:47:45;;;;;;;;;14.25;11.00;;;;;14.38;64.69;102117.53;5074076;27;45280;-48
2022/10/03 07:50:34;;;;;;;;;11.00;9.75;;;;;14.47;64.80;102127.00;5099349;27;45387;-48
2022/10/03 07:53:12;;;;;;;;;14.00;11.00;;;;;14.51;64.54;102133.94;5079936;27;45834;-44
2022/10/03 07:56:12;;;;;;;;;15.00;11.00;;;;;14.56;64.39;102137.34;5103059;27;45236;-43
2022/10/03 07:59:08;;;;;;;;;13.75;10.25;;;;;14.61;64.72;102148.69;5063982;27;45505;-44
2022/10/03 08:01:37;;;;;;;;;10.75;9.75;;;;;14.61;64.05;102148.69;5075432;27;45549;-44
2022/10/03 08:04:53;;;;;;;;;7.75;7.75;;;;;14.59;64.34;102148.72;5084724;27;48455;-43
2022/10/03 08:07:37;;;;;;;;;13.25;11.25;;;;;14.63;64.04;102146.03;5057330;27;45878;-44
2022/10/03 08:10:03;;;;;;;;;12.50;12.25;;;;;14.65;64.36;102150.34;5089584;27;47134;-44
2022/10/03 08:12:52;;;;;;;;;14.67;13.00;;;;;14.68;63.81;102145.03;5083833;27;45502;-49
2022/10/03 08:15:30;;;;;;;;;15.25;11.00;;;;;14.73;63.80;102143.16;5081703;27;46189;-43
2022/10/03 08:18:33;;;;;;;;;10.25;9.75;;;;;14.80;64.02;102142.13;5094093;27;45296;-44
2022/10/03 08:21:14;;;;;;;;;12.00;9.00;;;;;14.87;64.06;102148.09;5067421;27;45480;-43
2022/10/03 08:24:11;;;;;;;;;15.00;11.00;;;;;14.93;63.20;102144.50;5084450;27;45287;-42
2022/10/03 08:27:07;;;;;;;;;12.75;12.50;;;;;14.97;63.75;102147.00;5080520;27;45501;-43
2022/10/03 08:29:49;;;;;;;;;14.75;13.50;;;;;15.02;63.34;102146.91;5087467;27;45262;-42
2022/10/03 08:32:34;;;;;;;;;13.00;9.25;;;;;15.04;63.38;102144.25;5100737;27;45305;-45
2022/10/03 08:35:18;;;;;;;;;14.50;12.25;;;;;15.08;63.44;102145.91;5098079;27;45455;-43
2022/10/03 08:37:43;;;;;;;;;13.50;10.50;;;;;15.11;63.38;102143.19;5098648;27;45595;-44
2022/10/03 08:40:33;;;;;;;;;14.67;12.67;;;;;15.17;63.33;102140.41;5102956;27;45383;-44
2022/10/03 08:43:16;;;;;;;;;16.50;12.25;;;;;15.21;62.99;102147.34;5097077;27;45494;-43
2022/10/03 08:46:13;;;;;;;;;19.25;15.75;;;;;15.23;62.72;102144.66;5102362;27;45537;-43
2022/10/03 08:49:01;;;;;;;;;15.50;11.75;;;;;15.24;62.86;102141.13;5020894;27;46036;-43
2022/10/03 08:52:05;;;;;;;;;14.25;10.75;;;;;15.26;62.38;102142.81;5077777;27;45472;-44
2022/10/03 08:54:44;;;;;;;;;16.75;10.50;;;;;15.27;62.30;102134.00;4978394;28;45342;-44
2022/10/03 08:57:36;;;;;;;;;17.50;13.50;;;;;15.24;62.11;102139.34;5074874;27;45670;-42
2022/10/03 09:00:13;;;;;;;;;13.75;12.25;;;;;15.22;62.30;102140.31;5093030;27;45238;-43
2022/10/03 09:03:10;;;;;;;;;11.50;11.25;;;;;15.18;62.25;102140.38;5079022;28;45845;-45
2022/10/03 09:06:10;;;;;;;;;13.50;12.50;;;;;15.11;62.40;102138.78;5077422;28;45376;-43
2022/10/03 09:08:44;;;;;;;;;15.50;12.50;;;;;15.09;62.19;102139.72;5084859;27;45217;-44
2022/10/03 09:11:46;;;;;;;;;15.25;10.50;;;;;15.04;61.94;102146.88;5101193;27;45804;-46
2022/10/03 09:14:34;;;;;;;;;16.75;13.00;;;;;15.02;62.35;102159.25;5089218;27;45861;-44
2022/10/03 09:17:41;;;;;;;;;13.25;13.25;;;;;15.04;62.65;102166.19;5100785;27;45287;-48
2022/10/03 09:20:37;;;;;;;;;16.25;12.25;;;;;15.07;62.65;102171.41;5096597;27;45225;-44
2022/10/03 09:23:37;;;;;;;;;14.00;12.50;;;;;15.15;62.55;102174.72;5057335;27;46548;-43
2022/10/03 09:26:47;;;;;;;;;16.25;15.00;;;;;15.17;62.20;102172.94;5099987;27;45308;-43
2022/10/03 09:29:36;;;;;;;;;15.75;14.50;;;;;15.19;62.58;102173.75;5083777;27;45529;-44
2022/10/03 09:32:04;;;;;;;;;15.25;13.75;;;;;15.24;62.20;102188.59;5089748;27;46233;-49
2022/10/03 09:34:57;;;;;;;;;19.75;14.75;;;;;15.27;61.96;102180.63;5082510;27;45384;-49
2022/10/03 09:37:25;;;;;;;;;17.25;15.00;;;;;15.31;61.97;102175.22;5088037;27;45359;-49
2022/10/03 09:39:56;;;;;;;;;17.25;14.75;;;;;15.36;62.18;102183.03;5099500;27;45349;-47
2022/10/03 09:42:28;;;;;;;;;17.50;15.50;;;;;15.40;62.02;102179.41;5089198;27;45256;-47
2022/10/03 09:45:07;;;;;;;;;16.75;13.25;;;;;15.44;62.00;102181.09;5071011;27;47314;-45
2022/10/03 09:47:41;;;;;;;;;19.50;15.50;;;;;15.50;62.03;102180.94;5091242;27;45506;-46
2022/10/03 09:50:35;;;;;;;;;15.25;12.50;;;;;15.52;61.82;102184.41;5101471;27;45316;-46
2022/10/03 09:53:26;;;;;;;;;15.50;12.75;;;;;15.53;61.60;102170.31;5079157;27;45360;-49
2022/10/03 09:56:22;;;;;;;;;17.50;14.50;;;;;15.55;61.80;102175.56;5092797;27;46186;-45
2022/10/03 09:59:25;;;;;;;;;18.75;16.00;;;;;15.58;61.14;102170.19;5101220;27;45275;-43
2022/10/03 10:02:28;;;;;;;;;20.25;15.00;;;;;15.61;61.15;102163.97;5080372;27;45335;-44
2022/10/03 10:05:26;;;;;;;;;24.50;18.75;;;;;15.63;61.25;102163.00;5085450;27;45645;-44
2022/10/03 10:08:31;;;;;;;;;77.25;62.25;;;;;15.66;61.19;102149.75;5099937;27;46285;-47
2022/10/03 10:11:17;;;;;;;;;18.75;13.25;;;;;15.73;60.71;102148.69;5075282;27;45256;-46
2022/10/03 10:14:18;;;;;;;;;16.50;14.50;;;;;15.77;60.68;102153.91;5094874;27;45299;-42
2022/10/03 10:16:53;;;;;;;;;19.00;15.25;;;;;15.83;60.73;102148.47;5079689;28;45185;-44
2022/10/03 10:19:24;;;;;;;;;22.00;17.00;;;;;15.86;60.77;102153.69;5073771;28;45569;-41
2022/10/03 10:22:16;;;;;;;;;15.50;14.25;;;;;15.90;60.73;102150.03;5074350;27;47157;-46
2022/10/03 10:25:08;;;;;;;;;16.75;15.50;;;;;15.93;60.56;102150.81;5093891;27;45470;-46
2022/10/03 10:27:48;;;;;;;;;20.25;14.50;;;;;15.93;60.57;102161.38;5100265;27;45771;-43
2022/10/03 10:30:44;;;;;;;;;20.50;17.25;;;;;15.95;60.45;102158.69;5100935;27;45584;-42
2022/10/03 10:33:35;;;;;;;;;21.50;18.00;;;;;15.92;60.39;102167.59;5082589;27;45447;-43
2022/10/03 10:36:31;;;;;;;;;26.50;19.25;;;;;15.92;60.15;102162.31;5099630;27;45211;-42
2022/10/03 10:39:27;;;;;;;;;17.50;15.50;;;;;15.97;60.52;102153.38;5099616;27;45700;-42
2022/10/03 10:42:36;;;;;;;;;31.00;23.25;;;;;15.98;60.17;102155.13;5081180;27;46159;-45
2022/10/03 10:45:40;;;;;;;;;64.50;49.00;;;;;15.99;60.21;102151.56;5100144;27;45964;-43
2022/10/03 10:48:30;;;;;;;;;30.00;19.75;;;;;16.05;60.36;102141.72;5100792;27;45272;-45
2022/10/03 10:51:29;;;;;;;;;22.75;19.25;;;;;16.09;59.97;102135.44;5086121;27;45696;-43
2022/10/03 10:54:13;;;;;;;;;25.75;19.50;;;;;16.15;60.15;102134.41;5081599;27;45392;-43
2022/10/03 10:57:10;;;;;;;;;25.00;19.25;;;;;16.17;59.94;102135.22;5099294;27;45397;-43
2022/10/03 11:00:11;;;;;;;;;20.50;16.75;;;;;16.21;59.91;102136.00;5099399;27;45276;-47
2022/10/03 11:03:08;;;;;;;;;18.00;16.25;;;;;16.27;59.98;102156.97;5083083;27;45708;-46
2022/10/03 11:05:55;;;;;;;;;17.75;15.75;;;;;16.32;59.82;102144.50;5073369;27;46694;-49
2022/10/03 11:08:55;;;;;;;;;18.75;15.50;;;;;16.36;59.83;102139.97;5066414;28;45423;-48
2022/10/03 11:11:58;;;;;;;;;25.00;17.50;;;;;16.43;59.57;102146.81;5058900;27;45276;-47
2022/10/03 11:14:51;;;;;;;;;21.50;17.25;;;;;16.44;59.92;102148.56;5070912;27;45485;-47
2022/10/03 11:17:50;;;;;;;;;20.50;15.00;;;;;16.43;59.39;102149.47;5099159;27;45484;-45
2022/10/03 11:20:40;;;;;;;;;24.00;17.25;;;;;16.46;59.19;102150.25;5100165;27;45721;-43
2022/10/03 11:23:17;;;;;;;;;20.00;18.25;;;;;16.54;59.38;102142.09;5088161;27;45282;-43
2022/10/03 11:26:01;;;;;;;;;18.75;18.25;;;;;16.59;59.55;102147.25;5097363;27;45490;-44
2022/10/03 11:29:12;;;;;;;;;16.00;15.25;;;;;16.57;59.20;102138.50;5096403;27;45482;-44
2022/10/03 11:32:07;;;;;;;;;17.50;15.75;;;;;16.65;58.59;102140.00;5058746;27;45776;-46
2022/10/03 11:34:38;;;;;;;;;18.50;15.00;;;;;16.65;58.71;102137.34;5058293;27;45460;-44
2022/10/03 11:37:38;;;;;;;;;16.50;15.00;;;;;16.69;58.54;102133.69;5097078;27;45468;-44
2022/10/03 11:40:23;;;;;;;;;17.25;16.50;;;;;16.69;58.60;102130.19;5090421;27;46975;-44
2022/10/03 11:43:16;;;;;;;;;16.50;13.75;;;;;16.73;58.48;102125.69;5072342;27;45309;-46
2022/10/03 11:46:23;;;;;;;;;16.50;16.00;;;;;16.82;58.33;102121.00;5075937;28;45276;-44
2022/10/03 11:49:01;;;;;;;;;21.25;14.25;;;;;16.92;58.09;102128.66;5088456;27;45476;-45
2022/10/03 11:51:40;;;;;;;;;19.25;15.00;;;;;16.93;57.72;102128.63;5076610;27;45529;-45
2022/10/03 11:54:19;;;;;;;;;18.00;15.00;;;;;16.91;57.99;102127.81;5067350;28;45360;-43
2022/10/03 11:57:08;;;;;;;;;15.75;14.00;;;;;16.96;58.07;102125.84;5076561;28;45358;-43
2022/10/03 11:59:43;;;;;;;;;14.75;12.00;;;;;17.01;57.65;102121.28;5061399;27;45363;-46
2022/10/03 12:02:15;;;;;;;;;14.25;12.50;;;;;17.04;57.43;102113.28;5090094;27;45908;-45
2022/10/03 12:04:49;;;;;;;;;17.00;13.50;;;;;17.12;57.60;102118.31;5099438;27;45288;-42
2022/10/03 12:10:50;;;;;;;;;17.75;14.00;;;;;17.24;57.02;102112.59;5077210;27;45344;-45
2022/10/03 12:13:29;;;;;;;;;14.50;10.50;;;;;17.31;56.29;102121.22;5085837;27;46379;-44
2022/10/03 12:15:57;;;;;;;;;16.50;13.00;;;;;17.30;57.17;102113.31;5078505;27;45327;-45
2022/10/03 12:18:43;;;;;;;;;15.00;12.00;;;;;17.32;56.77;102111.53;5098609;27;45232;-44
2022/10/03 12:21:11;;;;;;;;;18.75;13.50;;;;;17.35;56.88;102106.09;5080528;27;45378;-44
2022/10/03 12:23:50;;;;;;;;;16.25;13.50;;;;;17.39;56.72;102108.59;5097930;27;46321;-46
2022/10/03 12:26:25;;;;;;;;;15.00;13.00;;;;;17.44;57.00;102105.78;5073805;28;45471;-48
2022/10/03 12:28:53;;;;;;;;;24.25;20.00;;;;;17.48;56.55;102103.94;5090102;27;45452;-46
2022/10/03 12:31:36;;;;;;;;;18.75;14.00;;;;;17.52;56.11;102094.97;5080795;27;45343;-46
2022/10/03 12:34:05;;;;;;;;;14.75;12.75;;;;;17.61;56.17;102105.22;5076624;27;46096;-48
2022/10/03 12:36:52;;;;;;;;;14.75;13.75;;;;;17.65;55.93;102110.38;5088852;27;45312;-48
2022/10/03 12:39:24;;;;;;;;;14.50;11.00;;;;;17.71;56.08;102096.06;5091374;27;45351;-49
2022/10/03 12:41:53;;;;;;;;;19.00;12.00;;;;;17.75;55.79;102092.38;5102475;27;45551;-46
2022/10/03 12:44:42;;;;;;;;;13.75;11.50;;;;;17.75;55.63;102079.13;5063475;27;49567;-46
2022/10/03 12:47:26;;;;;;;;;14.25;11.25;;;;;17.81;55.32;102086.88;5079272;28;45932;-43